createdAt,value
2023-03-06T00:01:07.339Z,1.50
2023-03-06T00:03:35.316Z,1.50
2023-03-06T00:06:05.201Z,1.60
2023-03-06T00:08:33.356Z,1.60
2023-03-06T00:11:01.452Z,1.60
2023-03-06T00:13:30.698Z,1.60
2023-03-06T00:15:59.648Z,1.50
2023-03-06T00:18:27.823Z,1.50
2023-03-06T00:20:55.995Z,1.50
2023-03-06T00:23:25.718Z,1.50
2023-03-06T00:25:53.923Z,1.50
2023-03-06T00:28:21.875Z,1.40
2023-03-06T00:30:49.892Z,1.40
2023-03-06T00:33:17.923Z,1.30
2023-03-06T00:35:45.982Z,1.30
2023-03-06T00:38:14.193Z,1.30
2023-03-06T00:40:43.604Z,1.50
2023-03-06T00:43:11.873Z,1.50
2023-03-06T00:45:39.913Z,1.80
2023-03-06T00:48:08.066Z,1.60
2023-03-06T00:50:36.302Z,1.80
2023-03-06T00:53:04.335Z,1.70
2023-03-06T00:55:33.638Z,1.50
2023-03-06T00:58:03.098Z,1.40
2023-03-06T01:00:37.348Z,1.50
2023-03-06T01:03:05.580Z,1.50
2023-03-06T01:05:33.830Z,1.40
2023-03-06T01:08:01.913Z,1.30
2023-03-06T01:10:30.012Z,1.30
2023-03-06T01:12:58.047Z,1.40
2023-03-06T01:15:27.458Z,1.30
2023-03-06T01:17:55.531Z,1.40
2023-03-06T01:20:23.527Z,1.40
2023-03-06T01:22:51.813Z,1.30
2023-03-06T01:25:22.406Z,1.30
2023-03-06T01:27:50.596Z,1.20
2023-03-06T01:30:18.901Z,1.20
2023-03-06T01:32:48.368Z,1.20
2023-03-06T01:35:16.374Z,1.20
2023-03-06T01:37:44.275Z,1.20
2023-03-06T01:40:13.360Z,1.20
2023-03-06T01:42:41.325Z,1.30
2023-03-06T01:45:30.800Z,1.20
2023-03-06T01:48:00.188Z,1.10
2023-03-06T01:50:28.159Z,1.00
2023-03-06T01:52:57.780Z,1.10
2023-03-06T01:55:27.206Z,1.00
2023-03-06T01:57:57.874Z,1.10
2023-03-06T02:00:27.081Z,1.20
2023-03-06T02:02:56.551Z,1.00
2023-03-06T02:05:26.020Z,0.90
2023-03-06T02:07:54.220Z,1.00
2023-03-06T02:10:22.298Z,1.00
2023-03-06T02:12:50.553Z,0.90
2023-03-06T02:15:20.519Z,0.80
2023-03-06T02:17:49.309Z,0.80
2023-03-06T02:20:19.469Z,0.70
2023-03-06T02:22:51.129Z,0.80
2023-03-06T02:25:29.996Z,0.80
2023-03-06T02:27:58.114Z,0.80
2023-03-06T02:30:27.038Z,0.60
2023-03-06T02:32:55.108Z,0.50
2023-03-06T02:35:23.390Z,0.50
2023-03-06T02:37:51.403Z,0.60
2023-03-06T02:40:19.431Z,0.60
2023-03-06T02:42:49.858Z,0.50
2023-03-06T02:45:20.150Z,0.40
2023-03-06T02:47:48.226Z,0.50
2023-03-06T02:50:16.164Z,0.50
2023-03-06T02:52:44.199Z,0.40
2023-03-06T02:55:12.502Z,0.50
2023-03-06T02:57:40.454Z,0.50
2023-03-06T03:00:11.201Z,0.40
2023-03-06T03:02:39.240Z,0.40
2023-03-06T03:05:07.844Z,0.40
2023-03-06T03:07:35.966Z,0.50
2023-03-06T03:10:04.108Z,0.40
2023-03-06T03:12:32.201Z,0.50
2023-03-06T03:15:00.205Z,0.50
2023-03-06T03:17:29.646Z,0.30
2023-03-06T03:19:57.599Z,0.30
2023-03-06T03:22:25.745Z,0.50
2023-03-06T03:24:54.091Z,0.40
2023-03-06T03:27:22.491Z,0.40
2023-03-06T03:29:50.849Z,0.20
2023-03-06T03:32:19.002Z,0.10
2023-03-06T03:34:48.405Z,0.20
2023-03-06T03:37:16.301Z,0.30
2023-03-06T03:39:44.305Z,0.40
2023-03-06T03:42:12.287Z,0.30
2023-03-06T03:44:40.337Z,0.20
2023-03-06T03:47:08.316Z,0.10
2023-03-06T03:49:36.341Z,0.20
2023-03-06T03:52:05.989Z,0.10
2023-03-06T03:54:33.896Z,0.10
2023-03-06T03:57:01.821Z,0.00
2023-03-06T03:59:29.896Z,0.10
2023-03-06T04:01:58.276Z,0.20
2023-03-06T04:04:26.735Z,0.00
2023-03-06T04:06:54.750Z,0.10
2023-03-06T04:09:24.402Z,0.10
2023-03-06T04:11:55.220Z,0.00
2023-03-06T04:14:25.670Z,0.10
2023-03-06T04:16:53.556Z,0.30
2023-03-06T04:19:21.500Z,0.40
2023-03-06T04:21:49.394Z,0.40
2023-03-06T04:24:17.380Z,0.40
2023-03-06T04:26:46.668Z,0.40
2023-03-06T04:29:14.658Z,0.30
2023-03-06T04:31:42.602Z,0.20
2023-03-06T04:34:10.489Z,0.20
2023-03-06T04:36:38.426Z,0.30
2023-03-06T04:39:06.428Z,0.30
2023-03-06T04:41:34.388Z,0.50
2023-03-06T04:44:03.938Z,0.50
2023-03-06T04:46:31.858Z,0.50
2023-03-06T04:48:59.863Z,0.60
2023-03-06T04:51:27.773Z,0.60
2023-03-06T04:53:55.628Z,0.60
2023-03-06T04:56:23.603Z,0.50
2023-03-06T04:58:51.623Z,0.40
2023-03-06T05:01:20.997Z,0.40
2023-03-06T05:03:49.750Z,0.50
2023-03-06T05:06:17.971Z,0.60
2023-03-06T05:08:46.108Z,0.50
2023-03-06T05:11:14.070Z,0.40
2023-03-06T05:13:41.911Z,0.50
2023-03-06T05:16:10.429Z,0.50
2023-03-06T05:18:39.627Z,0.50
2023-03-06T05:21:07.729Z,0.40
2023-03-06T05:23:38.387Z,0.50
2023-03-06T05:26:08.255Z,0.40
2023-03-06T05:28:36.243Z,0.60
2023-03-06T05:31:04.176Z,0.60
2023-03-06T05:33:33.092Z,0.60
2023-03-06T05:36:02.634Z,0.60
2023-03-06T05:38:30.750Z,0.60
2023-03-06T05:40:58.933Z,0.60
2023-03-06T05:43:27.131Z,0.50
2023-03-06T05:46:01.830Z,0.40
2023-03-06T05:48:30.002Z,0.40
2023-03-06T05:50:58.313Z,0.40
2023-03-06T05:53:29.229Z,0.60
2023-03-06T05:55:58.405Z,0.70
2023-03-06T05:58:26.738Z,0.60
2023-03-06T06:00:55.258Z,0.60
2023-03-06T06:03:23.551Z,0.60
2023-03-06T06:05:51.901Z,0.70
2023-03-06T06:08:20.124Z,0.60
2023-03-06T06:10:52.255Z,0.70
2023-03-06T06:13:21.371Z,0.70
2023-03-06T06:15:49.554Z,0.70
2023-03-06T06:18:17.575Z,0.70
2023-03-06T06:20:45.854Z,0.80
2023-03-06T06:23:13.935Z,0.80
2023-03-06T06:25:42.206Z,0.80
2023-03-06T06:28:19.168Z,0.70
2023-03-06T06:30:47.131Z,0.70
2023-03-06T06:33:15.116Z,1.20
2023-03-06T06:35:43.110Z,1.20
2023-03-06T06:38:11.117Z,1.00
2023-03-06T06:40:39.260Z,1.10
2023-03-06T06:43:07.310Z,0.80
2023-03-06T06:45:36.891Z,0.70
2023-03-06T06:48:05.059Z,0.70
2023-03-06T06:50:33.105Z,0.70
2023-03-06T06:53:01.276Z,0.80
2023-03-06T06:55:29.477Z,0.80
2023-03-06T06:57:57.621Z,0.90
2023-03-06T07:00:25.874Z,1.00
2023-03-06T07:02:55.281Z,1.00
2023-03-06T07:05:23.540Z,1.00
2023-03-06T07:07:51.954Z,1.00
2023-03-06T07:10:21.176Z,1.00
2023-03-06T07:12:49.361Z,1.00
2023-03-06T07:15:17.316Z,1.00
2023-03-06T07:17:45.237Z,1.50
2023-03-06T07:20:14.492Z,2.50
2023-03-06T07:22:50.915Z,1.70
2023-03-06T07:25:20.074Z,1.50
2023-03-06T07:27:53.284Z,1.40
2023-03-06T07:30:21.992Z,1.30
2023-03-06T07:32:51.328Z,1.20
2023-03-06T07:35:21.090Z,1.30
2023-03-06T07:37:49.106Z,1.30
2023-03-06T07:40:17.199Z,1.40
2023-03-06T07:42:45.176Z,1.40
2023-03-06T07:45:13.336Z,1.40
2023-03-06T07:47:41.547Z,1.40
2023-03-06T07:50:10.207Z,1.40
2023-03-06T07:52:39.580Z,1.50
2023-03-06T07:55:08.450Z,2.40
2023-03-06T07:57:36.575Z,2.70
2023-03-06T08:00:05.962Z,2.20
2023-03-06T08:02:34.118Z,2.00
2023-03-06T08:05:02.202Z,1.80
2023-03-06T08:07:30.673Z,1.70
2023-03-06T08:09:59.987Z,1.70
2023-03-06T08:12:28.109Z,1.80
2023-03-06T08:14:56.477Z,1.80
2023-03-06T08:17:24.513Z,1.90
2023-03-06T08:19:52.594Z,1.80
2023-03-06T08:22:20.680Z,1.80
2023-03-06T08:24:48.706Z,1.90
2023-03-06T08:27:18.166Z,2.00
2023-03-06T08:29:46.180Z,1.90
2023-03-06T08:32:14.181Z,1.90
2023-03-06T08:34:43.041Z,1.90
2023-03-06T08:37:11.212Z,2.00
2023-03-06T08:39:39.321Z,1.90
2023-03-06T08:42:07.546Z,1.90
2023-03-06T08:44:36.841Z,2.00
2023-03-06T08:47:04.946Z,2.10
2023-03-06T08:49:33.084Z,2.10
2023-03-06T08:52:01.009Z,2.10
2023-03-06T08:54:29.123Z,2.10
2023-03-06T08:56:57.147Z,2.10
2023-03-06T08:59:25.813Z,2.20
2023-03-06T09:01:55.336Z,2.20
2023-03-06T09:04:23.547Z,2.20
2023-03-06T09:06:51.519Z,2.30
2023-03-06T09:09:19.599Z,2.30
2023-03-06T09:11:47.624Z,2.30
2023-03-06T09:14:15.678Z,2.30
2023-03-06T09:16:43.932Z,2.30
2023-03-06T09:19:13.790Z,2.40
2023-03-06T09:21:42.016Z,2.40
2023-03-06T09:24:10.508Z,2.50
2023-03-06T09:26:47.659Z,2.60
2023-03-06T09:29:17.655Z,2.50
2023-03-06T09:31:48.453Z,2.60
2023-03-06T09:34:18.145Z,2.60
2023-03-06T09:36:56.900Z,2.70
2023-03-06T09:39:26.338Z,2.70
2023-03-06T09:41:54.699Z,2.80
2023-03-06T09:44:23.994Z,2.80
2023-03-06T09:47:06.982Z,2.80
2023-03-06T09:49:43.227Z,2.80
2023-03-06T09:52:20.965Z,2.90
2023-03-06T09:54:52.513Z,2.80
2023-03-06T09:57:22.473Z,2.80
2023-03-06T09:59:53.108Z,2.80
2023-03-06T10:02:22.897Z,2.90
2023-03-06T10:04:53.709Z,2.90
2023-03-06T10:07:22.814Z,2.80
2023-03-06T10:09:53.407Z,2.90
2023-03-06T10:12:25.796Z,2.90
2023-03-06T10:15:00.730Z,2.90
2023-03-06T10:17:32.486Z,3.00
2023-03-06T10:20:01.916Z,3.00
2023-03-06T10:22:33.108Z,3.10
2023-03-06T10:25:04.474Z,3.10
2023-03-06T10:27:38.612Z,3.20
2023-03-06T10:30:16.525Z,3.10
2023-03-06T10:32:49.044Z,3.10
2023-03-06T10:35:20.309Z,3.00
2023-03-06T10:37:48.281Z,3.10
2023-03-06T10:40:18.459Z,3.20
2023-03-06T10:42:46.399Z,3.20
2023-03-06T10:45:15.076Z,3.20
2023-03-06T10:47:43.501Z,3.30
2023-03-06T10:50:24.792Z,3.30
2023-03-06T10:53:04.411Z,3.40
2023-03-06T10:55:32.704Z,3.30
2023-03-06T10:58:17.554Z,3.20
2023-03-06T11:00:45.637Z,3.10
2023-03-06T11:03:22.413Z,3.20
2023-03-06T11:06:12.555Z,3.30
2023-03-06T11:08:41.407Z,3.40
2023-03-06T11:11:10.347Z,3.40
2023-03-06T11:13:39.217Z,3.40
2023-03-06T11:16:08.895Z,3.30
2023-03-06T11:18:38.988Z,3.30
2023-03-06T11:21:25.002Z,3.30
2023-03-06T11:23:53.066Z,3.40
2023-03-06T11:26:47.510Z,3.30
2023-03-06T11:29:29.421Z,3.30
2023-03-06T11:31:59.551Z,3.30
2023-03-06T11:34:35.167Z,3.30
2023-03-06T11:37:07.189Z,3.30
2023-03-06T11:39:37.762Z,3.30
2023-03-06T11:42:11.110Z,3.40
2023-03-06T11:44:46.696Z,3.30
2023-03-06T11:47:18.163Z,3.30
2023-03-06T11:49:47.498Z,3.30
2023-03-06T11:52:21.180Z,3.30
2023-03-06T11:54:54.480Z,3.20
2023-03-06T11:57:24.331Z,3.20
2023-03-06T12:00:18.451Z,3.20
2023-03-06T12:03:09.516Z,3.30
2023-03-06T12:05:41.846Z,3.30
2023-03-06T12:08:23.048Z,3.20
2023-03-06T12:10:52.504Z,3.30
2023-03-06T12:13:39.951Z,3.30
2023-03-06T12:16:17.984Z,3.20
2023-03-06T12:18:50.797Z,3.10
2023-03-06T12:21:22.298Z,3.10
2023-03-06T12:24:01.598Z,3.10
2023-03-06T12:26:51.011Z,3.20
2023-03-06T12:29:34.662Z,3.20
2023-03-06T12:32:09.457Z,3.30
2023-03-06T12:34:45.102Z,3.20
2023-03-06T12:37:19.434Z,3.30
2023-03-06T12:39:58.810Z,3.30
2023-03-06T12:42:35.213Z,3.30
2023-03-06T12:45:11.615Z,3.40
2023-03-06T12:47:42.648Z,3.40
2023-03-06T12:50:18.456Z,3.40
2023-03-06T12:52:46.526Z,3.40
2023-03-06T12:55:17.437Z,3.40
2023-03-06T12:57:45.856Z,3.50
2023-03-06T13:00:38.745Z,3.50
2023-03-06T13:03:11.538Z,3.40
2023-03-06T13:06:13.986Z,3.40
2023-03-06T13:09:10.741Z,3.40
2023-03-06T13:12:08.715Z,3.50
2023-03-06T13:14:54.772Z,3.60
2023-03-06T13:17:28.233Z,3.70
2023-03-06T13:20:30.576Z,3.60
2023-03-06T13:22:58.905Z,3.70
2023-03-06T13:25:43.599Z,3.80
2023-03-06T13:28:26.062Z,3.90
2023-03-06T13:30:54.145Z,3.90
2023-03-06T13:33:53.055Z,4.10
2023-03-06T13:36:23.375Z,4.30
2023-03-06T13:39:12.182Z,4.40
2023-03-06T13:41:56.588Z,4.40
2023-03-06T13:44:53.131Z,4.50
2023-03-06T13:48:06.486Z,4.60
2023-03-06T13:50:39.690Z,4.60
2023-03-06T13:53:48.520Z,4.80
2023-03-06T13:56:28.053Z,4.80
2023-03-06T13:59:05.366Z,4.70
2023-03-06T14:01:47.759Z,4.70
2023-03-06T14:04:43.550Z,4.90
2023-03-06T14:07:20.002Z,4.90
2023-03-06T14:09:48.549Z,4.80
2023-03-06T14:12:18.835Z,4.70
2023-03-06T14:14:50.243Z,4.60
2023-03-06T14:17:25.027Z,4.50
2023-03-06T14:19:53.213Z,4.50
2023-03-06T14:22:23.504Z,4.50
2023-03-06T14:24:57.697Z,4.60
2023-03-06T14:27:45.560Z,4.40
2023-03-06T14:30:16.222Z,4.50
2023-03-06T14:32:45.644Z,4.50
2023-03-06T14:35:28.107Z,4.30
2023-03-06T14:37:58.080Z,4.20
2023-03-06T14:40:29.968Z,4.20
2023-03-06T14:43:27.888Z,4.30
2023-03-06T14:45:57.425Z,4.30
2023-03-06T14:48:27.903Z,4.20
2023-03-06T14:50:56.457Z,4.30
2023-03-06T14:53:26.555Z,4.20
2023-03-06T14:55:56.149Z,4.10
2023-03-06T14:58:28.125Z,4.10
2023-03-06T15:00:57.249Z,4.10
2023-03-06T15:03:28.214Z,4.20
2023-03-06T15:05:56.398Z,4.10
2023-03-06T15:12:34.921Z,4.20
2023-03-06T15:15:04.296Z,4.20
2023-03-06T15:17:33.703Z,4.20
2023-03-06T15:20:06.650Z,4.20
2023-03-06T15:22:37.785Z,4.10
2023-03-06T15:25:15.739Z,4.10
2023-03-06T15:27:48.558Z,4.10
2023-03-06T15:30:23.117Z,4.20
2023-03-06T15:32:50.956Z,4.20
2023-03-06T15:35:30.323Z,4.10
2023-03-06T15:37:58.234Z,4.20
2023-03-06T15:40:26.956Z,4.30
2023-03-06T15:42:54.740Z,4.20
2023-03-06T15:45:23.319Z,4.20
2023-03-06T15:47:52.621Z,4.30
2023-03-06T15:50:22.210Z,4.20
2023-03-06T15:52:51.353Z,4.10
2023-03-06T15:55:20.347Z,3.90
2023-03-06T15:57:50.110Z,4.00
2023-03-06T16:00:27.601Z,4.10
2023-03-06T16:02:55.855Z,3.90
2023-03-06T16:05:23.766Z,4.00
2023-03-06T16:07:53.161Z,3.70
2023-03-06T16:10:21.924Z,3.80
2023-03-06T16:12:50.830Z,3.80
2023-03-06T16:15:20.348Z,3.90
2023-03-06T16:17:49.378Z,3.80
2023-03-06T16:20:18.175Z,3.80
2023-03-06T16:22:46.727Z,3.80
2023-03-06T16:25:16.133Z,3.80
2023-03-06T16:27:43.997Z,3.90
2023-03-06T16:30:17.214Z,4.10
2023-03-06T16:32:45.940Z,3.90
2023-03-06T16:35:14.070Z,3.80
2023-03-06T16:37:41.900Z,3.60
2023-03-06T16:40:18.105Z,3.60
2023-03-06T16:42:45.954Z,3.60
2023-03-06T16:45:13.783Z,3.60
2023-03-06T16:47:41.731Z,3.50
2023-03-06T16:50:16.801Z,3.50
2023-03-06T16:52:44.659Z,3.40
2023-03-06T16:55:12.424Z,3.40
2023-03-06T16:57:41.570Z,3.40
2023-03-06T17:00:11.341Z,3.30
2023-03-06T17:02:39.732Z,3.30
2023-03-06T17:05:08.457Z,3.30
2023-03-06T17:07:36.578Z,3.30
2023-03-06T17:10:04.524Z,3.10
2023-03-06T17:12:32.627Z,3.10
2023-03-06T17:15:01.870Z,3.20
2023-03-06T17:17:29.969Z,3.20
2023-03-06T17:19:57.880Z,3.20
2023-03-06T17:23:06.124Z,3.20
2023-03-06T17:25:34.887Z,3.30
2023-03-06T17:28:02.792Z,3.20
2023-03-06T17:30:32.715Z,3.20
2023-03-06T17:33:00.808Z,3.20
2023-03-06T17:35:28.704Z,3.20
2023-03-06T17:37:57.823Z,3.20
2023-03-06T17:40:26.114Z,3.10
2023-03-06T17:42:54.424Z,3.20
2023-03-06T17:45:22.263Z,3.20
2023-03-06T17:47:53.599Z,3.10
2023-03-06T17:50:21.525Z,3.20
2023-03-06T17:52:49.508Z,3.10
2023-03-06T17:55:18.074Z,3.10
2023-03-06T17:57:45.881Z,3.10
2023-03-06T18:00:14.848Z,3.10
2023-03-06T18:02:44.314Z,3.10
2023-03-06T18:05:13.625Z,3.00
2023-03-06T18:07:41.492Z,3.00
2023-03-06T18:10:10.049Z,3.10
2023-03-06T18:12:37.963Z,3.00
2023-03-06T18:15:06.443Z,3.00
2023-03-06T18:17:34.295Z,3.00
2023-03-06T18:20:02.113Z,3.00
2023-03-06T18:22:31.399Z,2.90
2023-03-06T18:24:59.313Z,2.90
2023-03-06T18:27:27.476Z,2.90
2023-03-06T18:29:55.556Z,2.90
2023-03-06T18:32:23.419Z,2.90
2023-03-06T18:34:51.633Z,3.00
2023-03-06T18:37:20.242Z,3.00
2023-03-06T18:39:49.730Z,3.00
2023-03-06T18:42:18.405Z,3.00
2023-03-06T18:44:48.196Z,3.00
2023-03-06T18:47:16.290Z,2.90
2023-03-06T18:49:45.911Z,2.90
2023-03-06T18:52:13.720Z,3.00
2023-03-06T18:54:42.006Z,2.90
2023-03-06T18:57:12.514Z,2.90
2023-03-06T18:59:40.774Z,2.90
2023-03-06T19:02:08.777Z,2.90
2023-03-06T19:04:37.339Z,2.90
2023-03-06T19:07:05.436Z,2.90
2023-03-06T19:09:33.255Z,2.90
2023-03-06T19:12:03.169Z,2.90
2023-03-06T19:14:32.395Z,2.90
2023-03-06T19:17:00.209Z,2.80
2023-03-06T19:19:29.434Z,2.90
2023-03-06T19:21:58.713Z,2.90
2023-03-06T19:24:26.689Z,2.90
2023-03-06T19:26:54.564Z,2.80
2023-03-06T19:29:22.529Z,2.90
2023-03-06T19:31:52.976Z,2.90
2023-03-06T19:34:21.035Z,2.90
2023-03-06T19:36:50.530Z,3.00
2023-03-06T19:39:18.379Z,2.80
2023-03-06T19:41:47.406Z,2.80
2023-03-06T19:44:16.357Z,2.80
2023-03-06T19:46:44.400Z,2.80
2023-03-06T19:49:16.951Z,2.80
2023-03-06T19:51:44.991Z,2.80
2023-03-06T19:54:12.975Z,2.80
2023-03-06T19:56:40.891Z,2.80
2023-03-06T19:59:08.716Z,2.60
2023-03-06T20:01:36.608Z,2.70
2023-03-06T20:04:04.458Z,2.80
2023-03-06T20:06:35.769Z,2.70
2023-03-06T20:09:06.439Z,2.60
2023-03-06T20:11:34.213Z,2.60
2023-03-06T20:14:02.974Z,2.60
2023-03-06T20:16:31.174Z,2.60
2023-03-06T20:19:00.166Z,2.60
2023-03-06T20:21:28.264Z,2.50
2023-03-06T20:23:58.123Z,2.40
2023-03-06T20:26:26.244Z,2.50
2023-03-06T20:28:54.709Z,2.50
2023-03-06T20:31:23.455Z,2.60
2023-03-06T20:33:52.020Z,2.50
2023-03-06T20:36:20.997Z,2.60
2023-03-06T20:38:48.952Z,2.60
2023-03-06T20:41:18.451Z,2.60
2023-03-06T20:43:46.225Z,2.70
2023-03-06T20:46:14.308Z,2.60
2023-03-06T20:48:42.251Z,2.60
2023-03-06T20:51:13.224Z,2.50
2023-03-06T20:53:41.113Z,2.50
2023-03-06T20:56:12.341Z,2.50
2023-03-06T20:58:41.454Z,2.50
2023-03-06T21:01:09.265Z,2.50
2023-03-06T21:03:37.037Z,2.60
2023-03-06T21:06:05.140Z,2.60
2023-03-06T21:08:32.934Z,2.50
2023-03-06T21:11:00.727Z,2.60
2023-03-06T21:13:29.510Z,2.90
2023-03-06T21:15:58.679Z,2.80
2023-03-06T21:18:26.579Z,2.70
2023-03-06T21:20:54.480Z,2.70
2023-03-06T21:23:22.298Z,2.70
2023-03-06T21:25:50.199Z,2.70
2023-03-06T21:28:18.397Z,2.60
2023-03-06T21:30:46.409Z,2.60
2023-03-06T21:33:16.097Z,2.70
2023-03-06T21:35:44.229Z,2.80
2023-03-06T21:38:12.140Z,2.70
2023-03-06T21:40:39.967Z,2.70
2023-03-06T21:43:08.795Z,2.70
2023-03-06T21:45:37.064Z,2.60
2023-03-06T21:48:05.230Z,2.60
2023-03-06T21:50:35.118Z,2.70
2023-03-06T21:53:03.054Z,2.70
2023-03-06T21:55:30.882Z,2.70
2023-03-06T21:57:58.695Z,2.70
2023-03-06T22:00:26.596Z,2.60
2023-03-06T22:02:54.519Z,2.70
2023-03-06T22:05:22.330Z,2.70
2023-03-06T22:07:51.493Z,2.70
2023-03-06T22:10:19.467Z,2.70
2023-03-06T22:12:47.850Z,2.70
2023-03-06T22:15:15.675Z,2.60
2023-03-06T22:17:43.475Z,2.70
2023-03-06T22:20:13.579Z,2.80
2023-03-06T22:22:41.462Z,2.80
2023-03-06T22:25:11.870Z,2.80
2023-03-06T22:27:39.692Z,2.80
2023-03-06T22:30:08.629Z,2.90
2023-03-06T22:32:36.426Z,2.80
2023-03-06T22:35:04.316Z,2.80
2023-03-06T22:37:32.409Z,2.80
2023-03-06T22:40:00.208Z,2.80
2023-03-06T22:42:29.634Z,2.70
2023-03-06T22:44:57.458Z,2.70
2023-03-06T22:47:25.332Z,2.60
2023-03-06T22:49:53.133Z,2.60
2023-03-06T22:52:20.945Z,2.70
2023-03-06T22:54:48.754Z,2.60
2023-03-06T22:57:16.549Z,2.60
2023-03-06T22:59:45.684Z,2.60
2023-03-06T23:02:13.481Z,2.60
2023-03-06T23:04:41.355Z,2.60
2023-03-06T23:07:09.476Z,2.60
2023-03-06T23:09:37.256Z,2.60
2023-03-06T23:12:05.508Z,2.50
2023-03-06T23:14:33.312Z,2.60
2023-03-06T23:17:02.478Z,2.50
2023-03-06T23:19:30.257Z,2.50
2023-03-06T23:21:58.095Z,2.60
2023-03-06T23:24:25.886Z,2.50
2023-03-06T23:26:53.694Z,2.50
2023-03-06T23:29:21.504Z,2.50
2023-03-06T23:31:49.277Z,2.50
2023-03-06T23:34:18.427Z,2.50
2023-03-06T23:36:46.223Z,2.40
2023-03-06T23:39:14.136Z,2.40
2023-03-06T23:41:42.514Z,2.40
2023-03-06T23:44:10.326Z,2.40
2023-03-06T23:46:38.187Z,2.40
2023-03-06T23:49:06.243Z,2.50
2023-03-06T23:51:35.386Z,2.40
2023-03-06T23:54:03.321Z,2.50
2023-03-06T23:56:31.126Z,2.40
2023-03-06T23:58:58.914Z,2.40
